Time;durP1;ratioP1;P1;durP2;ratioP2;P2;SDS_P1;SDS_P2;PMS_P1;PMS_P2;Temp;Humidity;BMP_temperature;BMP_pressure;BME280_temperature;BME280_humidity;BME280_pressure;Samples;Min_cycle;Max_cycle;Signal;HPM_P1;HPM_P2
2021/12/13 00:02:30;;;;;;;26.63;18.38;;;;;;;4.47;64.64;102129.53;5047983;28;20045;-59
2021/12/13 00:05:02;;;;;;;28.90;19.20;;;;;;;4.46;64.65;102122.66;5048699;28;20044;-59
2021/12/13 00:07:35;;;;;;;28.50;18.85;;;;;;;4.50;64.53;102125.19;5047199;28;20201;-59
2021/12/13 00:10:13;;;;;;;30.83;19.20;;;;;;;4.50;64.59;102117.38;5048694;28;20456;-60
2021/12/13 00:12:45;;;;;;;27.88;18.55;;;;;;;4.53;64.72;102117.38;5048220;28;20049;-59
2021/12/13 00:15:24;;;;;;;27.65;18.27;;;;;;;4.57;64.79;102110.38;5049099;28;20543;-60
2021/12/13 00:17:53;;;;;;;31.23;19.23;;;;;;;4.55;64.87;102109.56;5036198;28;20076;-60
2021/12/13 00:20:38;;;;;;;28.58;19.13;;;;;;;4.54;65.05;102110.44;5048816;28;20711;-59
2021/12/13 00:23:16;;;;;;;27.67;18.35;;;;;;;4.52;65.05;102102.66;5047332;28;20568;-60
2021/12/13 00:25:46;;;;;;;29.85;18.60;;;;;;;4.53;65.02;102098.31;5039389;28;20118;-59
2021/12/13 00:28:17;;;;;;;26.48;17.85;;;;;;;4.51;64.88;102097.47;5044650;28;20041;-65
2021/12/13 00:31:01;;;;;;;25.35;17.65;;;;;;;4.51;65.12;102102.66;5044516;28;20104;-59
2021/12/13 00:33:53;;;;;;;28.27;18.02;;;;;;;4.47;65.18;102107.03;5041954;28;20492;-59
2021/12/13 00:36:34;;;;;;;28.05;17.40;;;;;;;4.48;65.13;102116.56;5038426;28;20052;-63
2021/12/13 00:39:09;;;;;;;22.92;16.92;;;;;;;4.44;65.33;102122.63;5034990;28;20040;-59
2021/12/13 00:41:37;;;;;;;25.83;18.48;;;;;;;4.44;65.37;102121.78;5040503;28;20075;-59
2021/12/13 00:44:14;;;;;;;24.75;17.02;;;;;;;4.45;65.09;102118.31;5034986;28;20041;-59
2021/12/13 00:46:43;;;;;;;26.35;17.55;;;;;;;4.45;65.19;102121.78;5040635;28;20501;-60
2021/12/13 00:49:13;;;;;;;25.00;16.67;;;;;;;4.43;65.45;102120.06;5035183;28;20435;-63
2021/12/13 00:51:45;;;;;;;26.65;17.17;;;;;;;4.34;65.25;102119.28;5039189;28;20100;-59
2021/12/13 00:54:22;;;;;;;24.85;16.42;;;;;;;4.32;65.56;102115.81;5044290;28;20045;-60
2021/12/13 00:57:04;;;;;;;26.75;16.92;;;;;;;4.34;65.48;102123.59;5040624;28;20486;-61
2021/12/13 00:59:48;;;;;;;25.23;16.50;;;;;;;4.34;65.26;102127.06;5044548;28;20347;-62
2021/12/13 01:02:27;;;;;;;27.95;16.88;;;;;;;4.30;65.54;102127.09;5040360;28;20042;-60
2021/12/13 01:05:42;;;;;;;25.23;16.17;;;;;;;4.34;65.43;102121.00;5044061;28;20052;-59
2021/12/13 01:08:31;;;;;;;31.05;17.65;;;;;;;4.33;65.34;102122.75;5006246;28;20057;-60
2021/12/13 01:11:19;;;;;;;26.48;16.27;;;;;;;4.33;65.43;102125.34;5040668;28;20068;-62
2021/12/13 01:14:34;;;;;;;24.48;17.15;;;;;;;4.34;65.43;102129.66;5041250;28;20053;-59
2021/12/13 01:17:25;;;;;;;24.75;16.83;;;;;;;4.33;65.37;102125.34;5039355;28;20110;-60
2021/12/13 01:20:00;;;;;;;23.17;16.80;;;;;;;4.34;65.45;102121.00;5044109;28;20045;-66
2021/12/13 01:28:11;;;;;;;24.80;16.48;;;;;;;4.36;65.46;102106.25;5042535;28;20045;-59
2021/12/13 01:30:50;;;;;;;25.85;17.15;;;;;;;4.33;65.42;102101.06;5043217;28;20060;-66
2021/12/13 01:33:18;;;;;;;27.27;16.67;;;;;;;4.32;65.45;102100.22;5043507;28;20052;-60
2021/12/13 01:35:48;;;;;;;24.98;15.38;;;;;;;4.32;65.48;102097.63;5047835;28;20083;-60
2021/12/13 01:38:30;;;;;;;24.13;17.67;;;;;;;4.34;65.36;102095.00;5048319;28;20052;-67
2021/12/13 01:41:00;;;;;;;21.80;15.85;;;;;;;4.33;65.61;102101.97;5045891;28;20049;-66
2021/12/13 01:43:30;;;;;;;27.20;16.88;;;;;;;4.30;66.02;102091.56;5041880;28;20045;-60
2021/12/13 01:46:04;;;;;;;23.42;16.00;;;;;;;4.32;65.50;102097.63;5048345;28;20044;-59
2021/12/13 01:48:46;;;;;;;23.95;16.52;;;;;;;4.34;65.48;102103.69;5047769;28;20481;-61
2021/12/13 01:51:33;;;;;;;25.80;17.17;;;;;;;4.33;65.54;102101.97;5049790;28;20047;-59
2021/12/13 01:54:20;;;;;;;24.90;16.52;;;;;;;4.34;65.60;102110.59;5051702;28;20045;-59
2021/12/13 01:57:22;;;;;;;24.00;16.88;;;;;;;4.32;65.69;102118.41;5052284;28;20098;-59
2021/12/13 02:00:07;;;;;;;25.65;17.73;;;;;;;4.28;65.70;102124.53;5048844;28;20521;-59
2021/12/13 02:02:43;;;;;;;24.10;16.52;;;;;;;4.24;65.81;102128.88;5043731;28;20088;-60
2021/12/13 02:05:11;;;;;;;21.70;15.80;;;;;;;4.22;66.06;102127.16;5051943;28;20052;-60
2021/12/13 02:07:47;;;;;;;21.88;16.23;;;;;;;4.25;65.59;102137.53;5053218;28;20053;-65
2021/12/13 02:10:36;;;;;;;25.07;16.93;;;;;;;4.18;65.74;102128.06;5055260;28;20078;-59
2021/12/13 02:13:16;;;;;;;21.20;16.02;;;;;;;4.17;65.94;102129.78;5054666;28;20307;-60
2021/12/13 02:18:34;;;;;;;24.95;16.23;;;;;;;4.16;65.93;102140.19;5054814;28;20099;-60
2021/12/13 02:21:12;;;;;;;26.35;16.25;;;;;;;4.14;65.75;102139.34;5040140;28;20490;-59
2021/12/13 02:23:46;;;;;;;25.80;16.67;;;;;;;4.12;65.80;102128.97;5054897;28;20048;-59
2021/12/13 02:26:14;;;;;;;22.80;16.05;;;;;;;4.09;65.79;102134.19;5041612;28;20050;-59
2021/12/13 02:28:44;;;;;;;22.42;16.80;;;;;;;4.05;66.07;102133.34;5053941;28;20071;-67
2021/12/13 02:31:21;;;;;;;21.98;16.00;;;;;;;4.01;66.04;102133.38;5054796;28;20052;-59
2021/12/13 02:33:53;;;;;;;23.88;15.70;;;;;;;4.00;66.14;102140.31;5054627;28;20451;-60
2021/12/13 02:36:24;;;;;;;24.85;16.90;;;;;;;3.99;66.01;102125.59;5048537;28;20079;-60
2021/12/13 02:38:56;;;;;;;25.35;17.20;;;;;;;4.01;65.91;102130.75;5054699;28;20041;-60
2021/12/13 02:41:28;;;;;;;20.00;14.45;;;;;;;4.00;65.95;102142.03;5052062;28;20049;-60
2021/12/13 02:44:02;;;;;;;24.42;16.05;;;;;;;3.96;66.05;102141.22;5034777;28;20049;-60
2021/12/13 02:46:29;;;;;;;23.23;15.70;;;;;;;3.96;66.05;102137.72;5034589;28;20383;-61
2021/12/13 02:48:59;;;;;;;22.30;16.58;;;;;;;3.92;66.05;102142.97;5034418;28;20038;-61
2021/12/13 02:51:35;;;;;;;21.92;15.27;;;;;;;3.93;66.13;102141.22;5033841;28;20083;-61
2021/12/13 02:54:10;;;;;;;22.08;15.02;;;;;;;3.93;66.12;102134.25;5037048;28;20071;-60
2021/12/13 02:56:44;;;;;;;25.88;16.60;;;;;;;3.97;65.89;102140.31;5035528;28;20448;-65
2021/12/13 02:59:12;;;;;;;22.17;15.55;;;;;;;3.93;65.91;102149.00;5035351;28;20042;-60
2021/12/13 03:01:49;;;;;;;24.08;15.57;;;;;;;3.92;66.18;102155.06;5034410;28;20053;-60
2021/12/13 03:04:19;;;;;;;22.08;15.10;;;;;;;3.91;66.28;102155.94;5038831;28;20076;-60
2021/12/13 03:06:56;;;;;;;20.15;15.32;;;;;;;3.93;66.08;102156.78;5041341;28;20100;-61
2021/12/13 03:09:26;;;;;;;22.88;16.50;;;;;;;3.90;66.09;102162.03;5047150;28;20053;-67
2021/12/13 03:11:54;;;;;;;23.77;16.80;;;;;;;3.86;66.36;102161.16;5046478;28;20041;-61
2021/12/13 03:14:31;;;;;;;23.83;15.52;;;;;;;3.81;66.27;102155.13;5046032;28;20045;-60
2021/12/13 03:17:06;;;;;;;26.55;17.38;;;;;;;3.80;66.28;102160.34;5046478;28;20452;-60
2021/12/13 03:19:35;;;;;;;21.33;15.30;;;;;;;3.79;66.11;102158.63;5047238;28;20095;-60
2021/12/13 03:22:20;;;;;;;22.63;15.63;;;;;;;3.78;66.28;102157.72;5046942;28;20045;-64
2021/12/13 03:24:47;;;;;;;28.13;16.58;;;;;;;3.79;66.11;102156.03;5045679;28;20497;-59
2021/12/13 03:27:22;;;;;;;33.60;17.83;;;;;;;3.79;65.80;102145.63;5046470;28;20041;-60
2021/12/13 03:30:18;;;;;;;32.33;19.75;;;;;;;3.74;66.17;102154.28;5038198;28;20098;-59
2021/12/13 03:33:06;;;;;;;32.72;19.38;;;;;;;3.79;65.77;102156.03;5043701;28;20060;-67
2021/12/13 03:35:45;;;;;;;38.50;20.27;;;;;;;3.73;66.02;102157.78;5039439;28;20103;-60
2021/12/13 03:38:29;;;;;;;30.77;18.25;;;;;;;3.68;66.13;102161.25;5050080;28;20078;-59
2021/12/13 03:41:01;;;;;;;32.97;18.20;;;;;;;3.66;66.18;102155.22;5048050;28;20091;-60
2021/12/13 03:43:36;;;;;;;25.65;16.55;;;;;;;3.65;66.08;102156.94;5049406;28;20540;-68
2021/12/13 03:46:06;;;;;;;20.23;15.13;;;;;;;3.64;66.03;102152.63;5051307;28;20045;-60
2021/12/13 03:48:34;;;;;;;21.60;15.65;;;;;;;3.63;66.12;102156.09;5049585;28;20100;-59
2021/12/13 03:51:07;;;;;;;19.98;14.68;;;;;;;3.58;66.18;102155.22;5051674;28;20049;-60
2021/12/13 03:53:35;;;;;;;20.20;15.25;;;;;;;3.55;66.18;102152.66;5049279;28;20102;-68
2021/12/13 03:56:10;;;;;;;21.67;14.98;;;;;;;3.54;65.97;102153.53;5050859;28;20041;-62
2021/12/13 03:58:44;;;;;;;21.42;15.27;;;;;;;3.51;66.01;102157.00;5049458;28;20072;-68
2021/12/13 04:01:29;;;;;;;20.42;15.20;;;;;;;3.57;65.92;102161.31;5041781;28;20083;-60
2021/12/13 04:04:03;;;;;;;19.60;15.13;;;;;;;3.55;65.81;102161.31;5044799;28;20084;-61
2021/12/13 04:06:29;;;;;;;32.35;16.35;;;;;;;3.50;65.90;102163.06;5047894;28;20049;-59
2021/12/13 04:08:58;;;;;;;25.58;15.00;;;;;;;3.47;66.03;102160.47;5045864;28;20114;-60
2021/12/13 04:11:27;;;;;;;26.25;16.15;;;;;;;3.45;65.85;102167.41;5048061;28;20040;-60
2021/12/13 04:14:06;;;;;;;26.85;16.02;;;;;;;3.42;66.03;102168.28;5044583;28;20129;-60
2021/12/13 04:17:05;;;;;;;23.17;16.52;;;;;;;3.47;66.04;102165.69;5037034;28;20071;-59
2021/12/13 04:19:59;;;;;;;23.38;15.57;;;;;;;3.47;65.90;102165.69;5044427;28;20049;-62
2021/12/13 04:22:32;;;;;;;22.33;16.23;;;;;;;3.50;66.07;102164.81;5044624;28;20056;-59
2021/12/13 04:25:07;;;;;;;27.23;17.10;;;;;;;3.46;66.08;102165.69;5044357;28;20494;-60
2021/12/13 04:27:54;;;;;;;29.02;17.13;;;;;;;3.40;66.05;102159.66;5039827;28;20055;-60
2021/12/13 04:30:28;;;;;;;25.45;15.85;;;;;;;3.38;66.08;102160.53;5049319;28;20040;-60
2021/12/13 04:33:02;;;;;;;35.15;17.92;;;;;;;3.34;66.09;102146.69;5048974;28;20094;-67
2021/12/13 04:35:30;;;;;;;29.48;17.17;;;;;;;3.37;65.64;102157.06;5049064;28;20083;-60
2021/12/13 04:38:00;;;;;;;25.58;16.52;;;;;;;3.37;65.79;102141.47;5047880;28;20045;-67
2021/12/13 04:40:31;;;;;;;26.65;17.23;;;;;;;3.36;65.91;102147.53;5048807;28;20041;-59
2021/12/13 04:43:18;;;;;;;31.15;16.38;;;;;;;3.32;65.90;102143.25;5048246;28;20563;-60
2021/12/13 04:45:46;;;;;;;;;;;;;;;3.31;65.96;102146.69;5049084;28;20045;-59
2021/12/13 04:48:17;;;;;;;24.77;16.85;;;;;;;3.35;65.76;102158.81;5048955;28;19979;-59
2021/12/13 04:50:54;;;;;;;26.02;15.13;;;;;;;3.29;65.74;102155.34;5048871;28;20049;-60
2021/12/13 04:53:28;;;;;;;26.45;15.63;;;;;;;3.26;65.97;102161.41;5036776;28;20041;-60
2021/12/13 04:55:57;;;;;;;24.13;15.95;;;;;;;3.17;66.07;102162.31;5048459;28;20067;-67
2021/12/13 04:58:25;;;;;;;21.50;15.18;;;;;;;3.15;65.88;102165.78;5048899;28;20049;-60
2021/12/13 05:00:56;;;;;;;19.80;15.02;;;;;;;3.16;65.51;102168.38;5048776;28;20044;-61
2021/12/13 05:03:28;;;;;;;23.27;15.10;;;;;;;3.10;65.64;102163.22;5049149;28;20060;-59
2021/12/13 05:05:58;;;;;;;25.65;15.35;;;;;;;3.13;65.46;102162.34;5034259;28;20045;-59
2021/12/13 05:08:26;;;;;;;40.35;17.13;;;;;;;3.10;65.49;102173.59;5047532;28;20493;-59
2021/12/13 05:10:53;;;;;;;22.15;15.73;;;;;;;3.10;65.40;102179.63;5048512;28;20041;-60
2021/12/13 05:13:24;;;;;;;29.98;15.70;;;;;;;3.09;65.44;102180.47;5048583;28;20049;-60
2021/12/13 05:16:09;;;;;;;22.10;16.35;;;;;;;3.13;65.46;102178.75;5037422;28;20453;-65
2021/12/13 05:18:45;;;;;;;28.10;16.00;;;;;;;3.14;65.41;102162.31;5048682;28;20128;-59
2021/12/13 05:21:24;;;;;;;25.67;16.40;;;;;;;3.19;65.31;102159.72;5048621;28;20075;-60
2021/12/13 05:24:00;;;;;;;24.92;15.95;;;;;;;3.22;65.27;102164.91;5036907;28;20095;-59
2021/12/13 05:26:29;;;;;;;;;;;;;;;3.18;65.47;102161.44;5047553;28;20079;-61
2021/12/13 05:28:57;;;;;;;28.75;16.92;;;;;;;3.23;65.15;102164.88;5052406;28;19920;-59
2021/12/13 05:31:25;;;;;;;25.42;17.00;;;;;;;3.19;65.56;102165.75;5045946;28;20483;-60
2021/12/13 05:33:56;;;;;;;24.80;16.88;;;;;;;3.20;65.51;102154.53;5038703;28;20052;-60
2021/12/13 05:36:31;;;;;;;25.63;17.00;;;;;;;3.17;65.42;102149.34;5052890;28;20049;-60
2021/12/13 05:39:13;;;;;;;25.58;15.98;;;;;;;3.16;65.57;102149.34;5038601;28;20045;-59
2021/12/13 05:41:50;;;;;;;23.35;15.95;;;;;;;3.15;65.80;102161.47;5052061;28;20491;-60
2021/12/13 05:44:27;;;;;;;24.67;15.50;;;;;;;3.13;65.74;102162.34;5039762;28;20041;-63
2021/12/13 05:46:56;;;;;;;24.30;16.17;;;;;;;3.14;65.73;102157.13;5051936;28;20095;-59
2021/12/13 05:49:30;;;;;;;27.45;16.20;;;;;;;3.16;65.65;102163.19;5052235;28;20091;-60
2021/12/13 05:52:10;;;;;;;25.45;15.40;;;;;;;3.15;65.70;102166.66;5050981;28;20102;-60
2021/12/13 05:54:42;;;;;;;30.38;16.83;;;;;;;3.14;65.91;102162.31;5051657;28;20048;-62
2021/12/13 05:57:18;;;;;;;24.75;17.48;;;;;;;3.14;65.96;102177.88;5051106;28;20486;-57
2021/12/13 06:00:05;;;;;;;;;;;;;;;3.16;65.90;102186.53;5032027;28;20095;-57
2021/12/13 06:02:31;;;;;;;23.48;16.42;;;;;;;3.21;65.78;102181.31;5044798;28;20365;-57
2021/12/13 06:05:06;;;;;;;25.27;16.40;;;;;;;3.24;65.70;102181.34;5045447;28;20127;-57
2021/12/13 06:07:36;;;;;;;22.02;15.75;;;;;;;3.25;65.74;102170.06;5043877;28;20041;-58
2021/12/13 06:10:15;;;;;;;26.10;16.25;;;;;;;3.23;65.82;102177.84;5045523;28;20053;-58
2021/12/13 06:12:54;;;;;;;22.63;16.58;;;;;;;3.25;65.78;102177.84;5044640;28;20068;-58
2021/12/13 06:15:29;;;;;;;22.05;16.83;;;;;;;3.30;65.46;102173.53;5048997;28;20084;-57
2021/12/13 06:18:01;;;;;;;27.13;16.80;;;;;;;3.29;65.84;102173.50;5045019;28;20477;-59
2021/12/13 06:20:43;;;;;;;24.05;16.52;;;;;;;3.29;65.82;102178.69;5043890;28;20057;-57
2021/12/13 06:23:22;;;;;;;29.52;16.85;;;;;;;3.27;66.03;102187.34;5037547;28;20087;-57
2021/12/13 06:26:14;;;;;;;27.60;16.52;;;;;;;3.29;65.97;102182.19;5036616;28;20045;-57
2021/12/13 06:28:52;;;;;;;28.20;16.58;;;;;;;3.29;66.01;102178.69;5050518;28;20102;-57
2021/12/13 06:31:21;;;;;;;32.22;17.38;;;;;;;3.29;66.17;102177.00;5051974;28;20052;-58
2021/12/13 06:33:56;;;;;;;29.70;16.95;;;;;;;3.29;66.13;102177.00;5051176;28;20055;-57
2021/12/13 06:36:35;;;;;;;30.27;17.02;;;;;;;3.31;66.15;102180.41;5046305;28;20551;-58
2021/12/13 06:39:10;;;;;;;29.77;17.83;;;;;;;3.30;66.16;102173.53;5038269;28;20048;-58
2021/12/13 06:41:39;;;;;;;24.92;16.42;;;;;;;3.32;66.28;102178.72;5051565;28;20378;-58
2021/12/13 06:44:15;;;;;;;28.80;16.38;;;;;;;3.32;66.30;102166.59;5050749;28;20122;-58
2021/12/13 06:46:57;;;;;;;24.23;17.02;;;;;;;3.35;66.35;102169.19;5051386;28;20076;-57
2021/12/13 06:49:35;;;;;;;31.58;17.67;;;;;;;3.37;66.23;102169.19;5039315;28;20037;-58
2021/12/13 06:52:14;;;;;;;28.42;17.08;;;;;;;3.37;66.40;102171.78;5049487;28;20041;-58
2021/12/13 06:54:42;;;;;;;29.25;18.13;;;;;;;3.37;66.51;102175.22;5049815;28;20429;-59
2021/12/13 06:57:14;;;;;;;29.25;18.92;;;;;;;3.39;66.58;102172.59;5033661;28;20585;-58
2021/12/13 06:59:59;;;;;;;29.27;18.60;;;;;;;3.42;66.37;102175.22;5032642;28;20506;-58
2021/12/13 07:02:39;;;;;;;27.98;18.08;;;;;;;3.44;66.77;102170.84;5032465;28;20107;-58
2021/12/13 07:05:29;;;;;;;29.38;18.27;;;;;;;3.46;66.61;102176.06;5030863;28;20088;-58
2021/12/13 07:08:02;;;;;;;31.88;18.52;;;;;;;3.65;66.41;102172.50;5036133;28;20118;-56
2021/12/13 07:10:37;;;;;;;29.17;19.52;;;;;;;3.69;66.27;102169.03;5038843;28;20453;-57
2021/12/13 07:13:09;;;;;;;30.75;19.23;;;;;;;3.77;66.22;102174.19;5036826;28;20087;-59
2021/12/13 07:15:43;;;;;;;30.13;17.73;;;;;;;4.02;66.74;102187.03;5030590;28;20053;-58
2021/12/13 07:18:40;;;;;;;34.53;22.08;;;;;;;4.12;66.01;102195.66;5033790;28;20087;-59
2021/12/13 07:21:24;;;;;;;31.75;19.65;;;;;;;4.20;66.04;102199.94;5033044;28;20041;-58
2021/12/13 07:24:00;;;;;;;;;;;;;;;4.24;66.20;102203.34;5036141;28;20482;-60
2021/12/13 07:27:07;;;;;;;32.65;19.13;;;;;;;4.21;66.13;102205.97;5032027;28;19983;-58
2021/12/13 07:29:57;;;;;;;32.70;19.27;;;;;;;4.20;66.15;102206.84;5031195;28;20076;-58
2021/12/13 07:32:45;;;;;;;41.78;25.23;;;;;;;4.22;66.21;102218.09;5030542;28;20132;-58
2021/12/13 07:35:25;;;;;;;39.30;24.60;;;;;;;4.23;66.15;102212.88;5031840;28;20053;-59
2021/12/13 07:38:06;;;;;;;29.60;18.77;;;;;;;4.21;66.27;102208.56;5030234;28;20052;-58
2021/12/13 07:40:57;;;;;;;32.50;18.63;;;;;;;4.25;66.27;102210.28;5029616;28;20049;-58
2021/12/13 07:43:35;;;;;;;32.85;19.45;;;;;;;4.26;66.35;102212.00;5032392;28;20060;-58
2021/12/13 07:46:06;;;;;;;31.77;19.25;;;;;;;4.28;66.21;102209.38;5031994;28;20050;-59
2021/12/13 07:48:41;;;;;;;29.00;18.27;;;;;;;4.26;66.31;102219.81;5031907;28;20049;-58
2021/12/13 07:51:19;;;;;;;31.42;18.77;;;;;;;4.27;66.60;102218.94;5036904;28;20077;-57
2021/12/13 07:53:50;;;;;;;36.88;18.98;;;;;;;4.34;66.64;102224.94;5031145;28;20053;-58
2021/12/13 07:56:35;;;;;;;33.42;19.30;;;;;;;4.37;66.63;102219.75;5037554;28;20045;-59
2021/12/13 07:59:14;;;;;;;25.38;18.17;;;;;;;4.53;66.46;102217.88;5036393;28;20049;-58
2021/12/13 08:01:52;;;;;;;28.02;18.70;;;;;;;4.67;66.09;102218.66;5048614;28;20147;-58
2021/12/13 08:04:48;;;;;;;28.42;18.60;;;;;;;4.63;66.14;102223.88;5046005;28;20049;-58
2021/12/13 08:07:39;;;;;;;30.60;17.98;;;;;;;4.60;66.02;102216.97;5030954;28;20119;-58
2021/12/13 08:10:17;;;;;;;33.78;18.75;;;;;;;4.61;66.28;102217.81;5035592;28;20505;-61
2021/12/13 08:12:49;;;;;;;30.77;19.30;;;;;;;4.62;66.19;102223.03;5036712;28;20049;-58
2021/12/13 08:15:26;;;;;;;29.38;19.23;;;;;;;4.68;66.31;102217.75;5030050;28;20042;-58
2021/12/13 08:18:03;;;;;;;39.03;23.73;;;;;;;5.26;65.07;102210.28;5034535;28;20050;-59
2021/12/13 08:20:41;;;;;;;32.78;21.90;;;;;;;5.83;63.49;102220.03;5029702;28;20053;-59
2021/12/13 08:23:18;;;;;;;31.20;20.33;;;;;;;6.30;62.40;102222.91;5036929;28;20045;-58
2021/12/13 08:25:47;;;;;;;33.15;20.35;;;;;;;6.64;61.51;102225.00;5038326;28;20556;-58
2021/12/13 08:28:19;;;;;;;34.55;21.67;;;;;;;7.02;60.87;102230.44;5044258;28;20079;-58
2021/12/13 08:30:53;;;;;;;46.53;22.98;;;;;;;7.35;60.20;102230.69;5033946;28;20057;-59
2021/12/13 08:33:23;;;;;;;33.80;20.33;;;;;;;7.60;59.69;102225.84;5040969;28;20140;-58
2021/12/13 08:36:01;;;;;;;31.52;18.75;;;;;;;7.37;60.28;102228.94;5031442;28;20037;-58
2021/12/13 08:38:48;;;;;;;33.78;19.55;;;;;;;6.99;61.50;102238.31;5041535;28;20390;-57
2021/12/13 08:41:16;;;;;;;33.53;20.95;;;;;;;6.76;62.01;102239.56;5032167;28;20037;-58
2021/12/13 08:43:54;;;;;;;30.15;20.42;;;;;;;6.66;62.58;102240.59;5035510;28;20052;-58
2021/12/13 08:46:47;;;;;;;33.65;22.80;;;;;;;6.61;62.89;102245.03;5031369;28;20056;-58
2021/12/13 08:49:30;;;;;;;35.47;23.13;;;;;;;6.54;63.11;102250.34;5029205;28;20099;-58
2021/12/13 08:52:21;;;;;;;27.80;19.63;;;;;;;6.51;63.20;102258.22;5030631;28;20447;-58
2021/12/13 08:54:52;;;;;;;26.15;17.05;;;;;;;6.48;63.01;102260.03;5028161;28;20064;-66
2021/12/13 08:58:03;;;;;;;31.23;18.42;;;;;;;6.45;62.88;102254.84;5034081;28;20102;-62
2021/12/13 09:00:46;;;;;;;28.85;18.25;;;;;;;6.51;62.87;102257.34;5030421;28;20045;-58
2021/12/13 09:03:31;;;;;;;34.15;18.88;;;;;;;6.55;62.64;102256.41;5044646;28;20049;-59
2021/12/13 09:05:58;;;;;;;29.85;17.63;;;;;;;6.56;62.56;102252.94;5029957;28;20296;-58
2021/12/13 09:08:54;;;;;;;27.90;17.90;;;;;;;6.74;62.31;102254.38;5027020;28;20057;-59
2021/12/13 09:11:26;;;;;;;33.00;17.35;;;;;;;6.77;62.15;102266.53;5027192;28;20084;-58
2021/12/13 09:13:59;;;;;;;26.65;17.65;;;;;;;6.68;62.35;102262.31;5028143;28;20088;-60
2021/12/13 09:16:39;;;;;;;25.40;18.25;;;;;;;6.92;62.06;102253.22;5029492;28;20044;-58
2021/12/13 09:19:30;;;;;;;34.33;19.90;;;;;;;6.94;61.97;102261.03;5029962;28;20045;-58
2021/12/13 09:22:08;;;;;;;28.05;17.75;;;;;;;6.78;62.65;102257.81;5029099;28;20088;-59
2021/12/13 09:24:55;;;;;;;26.95;17.58;;;;;;;7.38;61.14;102259.38;5028156;28;20054;-59
2021/12/13 09:27:41;;;;;;;26.95;17.35;;;;;;;7.26;61.83;102263.09;5035789;28;20498;-60
2021/12/13 09:30:11;;;;;;;27.60;18.23;;;;;;;7.49;61.17;102270.50;5044486;28;20163;-60
2021/12/13 09:33:02;;;;;;;25.25;18.20;;;;;;;7.49;61.31;102275.72;5047084;28;20102;-58
2021/12/13 09:35:47;;;;;;;31.20;18.13;;;;;;;7.51;61.32;102268.69;5038704;28;20057;-59
2021/12/13 09:38:52;;;;;;;24.73;17.00;;;;;;;7.48;61.51;102262.69;5032369;28;20049;-61
2021/12/13 09:41:29;;;;;;;28.70;16.80;;;;;;;7.60;61.10;102258.97;5037579;28;20045;-64
2021/12/13 09:44:08;;;;;;;25.90;17.73;;;;;;;7.45;61.53;102258.38;5047202;28;20056;-58
2021/12/13 09:46:56;;;;;;;25.77;17.25;;;;;;;7.41;61.64;102259.31;5047206;28;20045;-58
2021/12/13 09:49:27;;;;;;;24.88;17.73;;;;;;;7.36;61.77;102261.16;5038675;28;20041;-58
2021/12/13 09:52:13;;;;;;;29.50;17.92;;;;;;;7.30;61.84;102267.34;5029195;28;20823;-58
2021/12/13 09:54:49;;;;;;;31.67;18.58;;;;;;;7.24;62.11;102262.25;5028338;28;20049;-58
2021/12/13 09:57:21;;;;;;;32.33;18.55;;;;;;;7.23;62.20;102257.91;5029166;28;20053;-58
2021/12/13 10:00:14;;;;;;;30.27;18.80;;;;;;;7.18;62.13;102257.97;5028404;28;20429;-58
2021/12/13 10:02:45;;;;;;;30.27;18.98;;;;;;;7.13;62.15;102259.81;5029677;28;20041;-58
2021/12/13 10:05:17;;;;;;;28.38;18.60;;;;;;;7.11;62.56;102258.13;5038535;28;20049;-58
2021/12/13 10:07:50;;;;;;;28.50;17.95;;;;;;;7.12;62.45;102258.13;5034894;28;20053;-58
2021/12/13 10:10:43;;;;;;;29.38;18.77;;;;;;;7.14;62.47;102263.31;5037917;28;20045;-59
2021/12/13 10:13:21;;;;;;;28.35;19.42;;;;;;;7.11;62.45;102258.13;5030812;28;20071;-58
2021/12/13 10:15:55;;;;;;;29.05;18.67;;;;;;;7.11;62.72;102247.69;5035797;28;20103;-58
2021/12/13 10:18:26;;;;;;;30.45;20.48;;;;;;;7.10;62.63;102248.59;5035799;28;20045;-58
2021/12/13 10:21:00;;;;;;;30.35;21.05;;;;;;;7.16;62.42;102254.56;5042777;28;20049;-58
2021/12/13 10:23:33;;;;;;;26.50;19.52;;;;;;;7.23;62.55;102254.44;5034057;28;20042;-59
2021/12/13 10:26:22;;;;;;;31.30;21.08;;;;;;;7.39;62.13;102258.50;5033110;28;20076;-59
2021/12/13 10:28:56;;;;;;;27.35;20.75;;;;;;;8.33;59.71;102240.00;5031080;28;20067;-58
2021/12/13 10:31:47;;;;;;;31.75;20.38;;;;;;;8.67;58.55;102226.13;5030476;28;20103;-58
2021/12/13 10:34:26;;;;;;;30.48;19.75;;;;;;;8.74;58.65;102230.31;5030328;28;20071;-59
2021/12/13 10:37:14;;;;;;;31.15;20.30;;;;;;;8.89;58.05;102234.31;5030755;28;20045;-59
2021/12/13 10:39:45;;;;;;;29.80;21.58;;;;;;;9.05;57.54;102229.50;5029409;28;20490;-58
2021/12/13 10:42:21;;;;;;;28.83;20.00;;;;;;;9.00;57.48;102226.16;5032467;28;20104;-59
2021/12/13 10:44:48;;;;;;;27.58;20.88;;;;;;;8.94;57.41;102227.19;5030372;28;20096;-59
2021/12/13 10:47:26;;;;;;;28.95;22.50;;;;;;;9.04;56.94;102221.72;5030601;28;20103;-59
2021/12/13 10:49:54;;;;;;;32.25;20.25;;;;;;;8.90;57.01;102229.91;5032542;28;20073;-59
2021/12/13 10:52:44;;;;;;;24.05;17.80;;;;;;;8.81;56.70;102226.66;5035793;28;20040;-59
2021/12/13 10:55:22;;;;;;;28.45;18.50;;;;;;;8.68;56.71;102214.75;5049315;28;20045;-59
2021/12/13 10:57:50;;;;;;;25.48;18.23;;;;;;;8.60;56.63;102220.19;5037554;28;20052;-59
2021/12/13 11:00:46;;;;;;;29.45;18.88;;;;;;;8.54;56.72;102216.88;5040493;28;20644;-58
2021/12/13 11:03:17;;;;;;;22.67;18.08;;;;;;;8.52;56.64;102209.06;5033109;28;20557;-59
2021/12/13 11:05:49;;;;;;;28.20;19.83;;;;;;;8.55;56.51;102208.13;5035449;28;20049;-59
2021/12/13 11:08:18;;;;;;;25.25;18.90;;;;;;;8.61;56.54;102202.75;5036822;28;20053;-59
2021/12/13 11:10:49;;;;;;;32.97;19.80;;;;;;;8.68;56.32;102208.69;5038293;28;20091;-59
2021/12/13 11:13:25;;;;;;;28.45;19.13;;;;;;;8.68;56.49;102195.59;5032738;28;20115;-58
2021/12/13 11:15:55;;;;;;;28.63;19.13;;;;;;;8.68;56.23;102200.81;5032445;28;20041;-58
2021/12/13 11:18:27;;;;;;;25.55;19.45;;;;;;;8.65;56.33;102200.00;5032483;28;20080;-58
2021/12/13 11:21:08;;;;;;;25.15;18.92;;;;;;;8.70;56.51;102196.41;5033538;28;20053;-59
2021/12/13 11:23:35;;;;;;;41.83;25.45;;;;;;;8.70;56.55;102202.50;5033021;28;20044;-59
2021/12/13 11:26:06;;;;;;;27.40;20.05;;;;;;;8.69;56.67;102195.56;5031317;28;20068;-59
2021/12/13 11:28:45;;;;;;;30.00;21.90;;;;;;;8.70;56.67;102199.00;5036121;28;20080;-59
2021/12/13 11:31:37;;;;;;;37.50;25.90;;;;;;;8.69;56.61;102195.56;5030463;28;21031;-58
2021/12/13 11:34:37;;;;;;;35.97;22.58;;;;;;;8.71;56.94;102196.38;5030503;28;20131;-59
2021/12/13 11:37:41;;;;;;;66.75;39.78;;;;;;;8.72;57.09;102192.00;5030214;28;20057;-58
2021/12/13 11:40:50;;;;;;;49.55;30.55;;;;;;;8.73;57.35;102189.34;5029824;28;20048;-58
2021/12/13 11:43:52;;;;;;;56.75;32.50;;;;;;;8.74;57.54;102184.97;5034186;28;20113;-58
2021/12/13 11:46:26;;;;;;;51.92;29.42;;;;;;;8.72;57.83;102190.22;5039813;28;20041;-58
2021/12/13 11:49:30;;;;;;;71.65;40.65;;;;;;;8.73;58.06;102186.72;5035524;28;20045;-59
2021/12/13 11:52:26;;;;;;;182.90;92.13;;;;;;;8.70;58.30;102183.31;5034694;28;20057;-59
2021/12/13 11:55:23;;;;;;;118.97;60.70;;;;;;;8.67;58.48;102176.41;5033793;28;20460;-59
2021/12/13 11:58:27;;;;;;;91.72;46.92;;;;;;;8.69;58.33;102171.16;5044761;28;20068;-59
2021/12/13 12:01:31;;;;;;;57.70;33.00;;;;;;;8.72;58.47;102171.91;5048842;28;20485;-59
2021/12/13 12:04:06;;;;;;;64.95;39.80;;;;;;;8.69;58.54;102158.06;5044818;28;20561;-59
2021/12/13 12:07:07;;;;;;;35.08;23.90;;;;;;;8.66;58.43;102159.00;5043923;28;20049;-59
2021/12/13 12:10:01;;;;;;;41.55;27.65;;;;;;;8.66;58.53;102153.78;5043287;28;20052;-58
2021/12/13 12:12:52;;;;;;;41.10;26.58;;;;;;;8.66;58.56;102148.53;5047806;28;20152;-58
2021/12/13 12:15:21;;;;;;;39.35;25.75;;;;;;;8.70;58.55;102144.06;5036724;28;20111;-59
2021/12/13 12:17:50;;;;;;;46.47;29.98;;;;;;;8.71;58.85;102138.81;5039522;28;20041;-60
2021/12/13 12:20:25;;;;;;;58.50;33.85;;;;;;;8.73;58.51;102141.38;5037965;28;20123;-59